sensor_id;sensor_type;location;lat;lon;timestamp;P1;durP1;ratioP1;P2;durP2;ratioP2
61206;SDS011;47070;49.212;8.084;2022-10-31T00:01:40;987.93;;;928.77;;
61206;SDS011;47070;49.212;8.084;2022-10-31T00:05:41;983.08;;;924.33;;
61206;SDS011;47070;49.212;8.084;2022-10-31T00:09:46;981.40;;;922.63;;
61206;SDS011;47070;49.212;8.084;2022-10-31T00:13:47;987.00;;;927.90;;
61206;SDS011;47070;49.212;8.084;2022-10-31T00:17:47;985.27;;;926.33;;
61206;SDS011;47070;49.212;8.084;2022-10-31T00:21:47;984.70;;;925.63;;
61206;SDS011;47070;49.212;8.084;2022-10-31T00:25:48;980.57;;;921.90;;
61206;SDS011;47070;49.212;8.084;2022-10-31T00:29:48;975.83;;;917.40;;
61206;SDS011;47070;49.212;8.084;2022-10-31T00:33:49;983.78;;;925.05;;
61206;SDS011;47070;49.212;8.084;2022-10-31T00:37:50;986.83;;;927.90;;
61206;SDS011;47070;49.212;8.084;2022-10-31T00:41:51;977.83;;;919.28;;
61206;SDS011;47070;49.212;8.084;2022-10-31T00:45:52;973.03;;;914.10;;
61206;SDS011;47070;49.212;8.084;2022-10-31T00:49:52;974.87;;;916.23;;
61206;SDS011;47070;49.212;8.084;2022-10-31T00:53:53;972.63;;;914.38;;
61206;SDS011;47070;49.212;8.084;2022-10-31T00:57:53;970.13;;;911.93;;
61206;SDS011;47070;49.212;8.084;2022-10-31T01:01:54;972.80;;;914.20;;
61206;SDS011;47070;49.212;8.084;2022-10-31T01:10:03;982.03;;;923.13;;
61206;SDS011;47070;49.212;8.084;2022-10-31T01:14:04;978.25;;;919.47;;
61206;SDS011;47070;49.212;8.084;2022-10-31T01:18:05;980.95;;;922.05;;
61206;SDS011;47070;49.212;8.084;2022-10-31T01:22:05;985.73;;;926.90;;
61206;SDS011;47070;49.212;8.084;2022-10-31T01:26:28;983.83;;;924.85;;
61206;SDS011;47070;49.212;8.084;2022-10-31T01:30:30;981.67;;;922.97;;
61206;SDS011;47070;49.212;8.084;2022-10-31T01:34:31;987.50;;;928.60;;
61206;SDS011;47070;49.212;8.084;2022-10-31T01:38:32;991.83;;;932.17;;
61206;SDS011;47070;49.212;8.084;2022-10-31T01:42:32;991.20;;;932.30;;
61206;SDS011;47070;49.212;8.084;2022-10-31T01:46:37;991.03;;;931.80;;
61206;SDS011;47070;49.212;8.084;2022-10-31T01:50:41;991.00;;;931.75;;
61206;SDS011;47070;49.212;8.084;2022-10-31T01:55:01;995.58;;;936.38;;
61206;SDS011;47070;49.212;8.084;2022-10-31T01:59:08;991.95;;;932.92;;
61206;SDS011;47070;49.212;8.084;2022-10-31T02:03:10;982.93;;;924.27;;
61206;SDS011;47070;49.212;8.084;2022-10-31T02:07:16;977.90;;;919.57;;
61206;SDS011;47070;49.212;8.084;2022-10-31T02:11:21;981.58;;;922.65;;
61206;SDS011;47070;49.212;8.084;2022-10-31T02:15:21;998.10;;;938.77;;
61206;SDS011;47070;49.212;8.084;2022-10-31T02:24:00;984.47;;;925.67;;
61206;SDS011;47070;49.212;8.084;2022-10-31T02:32:38;981.28;;;922.70;;
61206;SDS011;47070;49.212;8.084;2022-10-31T02:36:57;983.28;;;924.65;;
61206;SDS011;47070;49.212;8.084;2022-10-31T02:41:18;980.10;;;921.60;;
61206;SDS011;47070;49.212;8.084;2022-10-31T02:45:32;972.38;;;913.78;;
61206;SDS011;47070;49.212;8.084;2022-10-31T02:49:40;973.35;;;915.20;;
61206;SDS011;47070;49.212;8.084;2022-10-31T02:53:47;963.57;;;905.73;;
61206;SDS011;47070;49.212;8.084;2022-10-31T02:57:47;969.83;;;911.50;;
61206;SDS011;47070;49.212;8.084;2022-10-31T03:10:30;967.50;;;909.40;;
61206;SDS011;47070;49.212;8.084;2022-10-31T03:14:47;967.00;;;908.92;;
61206;SDS011;47070;49.212;8.084;2022-10-31T03:19:13;958.97;;;901.07;;
61206;SDS011;47070;49.212;8.084;2022-10-31T03:23:19;970.15;;;912.05;;
61206;SDS011;47070;49.212;8.084;2022-10-31T03:27:26;969.03;;;910.83;;
61206;SDS011;47070;49.212;8.084;2022-10-31T03:31:32;972.47;;;914.27;;
61206;SDS011;47070;49.212;8.084;2022-10-31T03:35:41;962.17;;;904.20;;
61206;SDS011;47070;49.212;8.084;2022-10-31T03:39:45;958.17;;;900.22;;
61206;SDS011;47070;49.212;8.084;2022-10-31T03:43:52;966.80;;;908.67;;
61206;SDS011;47070;49.212;8.084;2022-10-31T03:47:58;958.70;;;900.83;;
61206;SDS011;47070;49.212;8.084;2022-10-31T04:00:37;950.27;;;892.57;;
61206;SDS011;47070;49.212;8.084;2022-10-31T04:04:40;958.40;;;900.58;;
61206;SDS011;47070;49.212;8.084;2022-10-31T04:08:54;955.25;;;897.45;;
61206;SDS011;47070;49.212;8.084;2022-10-31T04:13:03;950.38;;;892.75;;
61206;SDS011;47070;49.212;8.084;2022-10-31T04:17:07;948.70;;;891.33;;
61206;SDS011;47070;49.212;8.084;2022-10-31T04:21:12;957.80;;;900.03;;
61206;SDS011;47070;49.212;8.084;2022-10-31T04:25:12;947.87;;;890.40;;
61206;SDS011;47070;49.212;8.084;2022-10-31T04:29:13;954.10;;;896.20;;
61206;SDS011;47070;49.212;8.084;2022-10-31T04:33:13;940.67;;;883.53;;
61206;SDS011;47070;49.212;8.084;2022-10-31T04:37:14;943.27;;;885.97;;
61206;SDS011;47070;49.212;8.084;2022-10-31T04:41:15;928.77;;;871.97;;
61206;SDS011;47070;49.212;8.084;2022-10-31T04:45:15;933.50;;;876.67;;
61206;SDS011;47070;49.212;8.084;2022-10-31T04:49:16;916.20;;;859.60;;
61206;SDS011;47070;49.212;8.084;2022-10-31T04:53:16;914.27;;;857.87;;
61206;SDS011;47070;49.212;8.084;2022-10-31T04:57:17;910.27;;;854.13;;
61206;SDS011;47070;49.212;8.084;2022-10-31T05:01:17;910.70;;;854.40;;
61206;SDS011;47070;49.212;8.084;2022-10-31T05:05:18;907.30;;;850.75;;
61206;SDS011;47070;49.212;8.084;2022-10-31T05:09:21;903.00;;;846.67;;
61206;SDS011;47070;49.212;8.084;2022-10-31T05:13:22;902.07;;;845.67;;
61206;SDS011;47070;49.212;8.084;2022-10-31T05:17:22;912.43;;;855.93;;
61206;SDS011;47070;49.212;8.084;2022-10-31T05:21:23;898.90;;;842.60;;
61206;SDS011;47070;49.212;8.084;2022-10-31T05:25:24;892.47;;;836.50;;
61206;SDS011;47070;49.212;8.084;2022-10-31T05:29:26;891.50;;;835.45;;
61206;SDS011;47070;49.212;8.084;2022-10-31T05:33:27;889.87;;;834.00;;
61206;SDS011;47070;49.212;8.084;2022-10-31T05:37:27;895.90;;;839.83;;
61206;SDS011;47070;49.212;8.084;2022-10-31T05:41:28;884.97;;;829.38;;
61206;SDS011;47070;49.212;8.084;2022-10-31T05:45:28;889.50;;;833.57;;
61206;SDS011;47070;49.212;8.084;2022-10-31T05:49:29;899.53;;;843.47;;
61206;SDS011;47070;49.212;8.084;2022-10-31T05:53:29;885.13;;;829.17;;
61206;SDS011;47070;49.212;8.084;2022-10-31T05:57:31;894.13;;;838.27;;
61206;SDS011;47070;49.212;8.084;2022-10-31T06:01:32;896.58;;;840.60;;
61206;SDS011;47070;49.212;8.084;2022-10-31T06:05:33;889.57;;;833.63;;
61206;SDS011;47070;49.212;8.084;2022-10-31T06:09:33;906.83;;;850.13;;
61206;SDS011;47070;49.212;8.084;2022-10-31T06:13:34;921.28;;;864.33;;
61206;SDS011;47070;49.212;8.084;2022-10-31T06:17:34;907.50;;;851.00;;
61206;SDS011;47070;49.212;8.084;2022-10-31T06:21:35;925.80;;;868.58;;
61206;SDS011;47070;49.212;8.084;2022-10-31T06:25:36;923.40;;;866.37;;
61206;SDS011;47070;49.212;8.084;2022-10-31T06:29:37;934.70;;;877.10;;
61206;SDS011;47070;49.212;8.084;2022-10-31T06:33:37;939.50;;;881.70;;
61206;SDS011;47070;49.212;8.084;2022-10-31T06:37:38;939.33;;;881.73;;
61206;SDS011;47070;49.212;8.084;2022-10-31T06:41:38;944.38;;;886.47;;
61206;SDS011;47070;49.212;8.084;2022-10-31T06:45:39;946.00;;;888.10;;
61206;SDS011;47070;49.212;8.084;2022-10-31T06:49:40;952.30;;;893.80;;
61206;SDS011;47070;49.212;8.084;2022-10-31T06:53:40;966.43;;;907.97;;
61206;SDS011;47070;49.212;8.084;2022-10-31T06:57:41;961.77;;;903.43;;
61206;SDS011;47070;49.212;8.084;2022-10-31T07:01:41;975.77;;;916.53;;
61206;SDS011;47070;49.212;8.084;2022-10-31T07:05:42;976.72;;;917.88;;
61206;SDS011;47070;49.212;8.084;2022-10-31T07:09:43;997.70;;;937.80;;
61206;SDS011;47070;49.212;8.084;2022-10-31T07:13:44;994.40;;;934.80;;
61206;SDS011;47070;49.212;8.084;2022-10-31T07:17:44;999.10;;;939.10;;
61206;SDS011;47070;49.212;8.084;2022-10-31T07:21:45;989.03;;;929.83;;
61206;SDS011;47070;49.212;8.084;2022-10-31T07:25:45;1007.90;;;947.20;;
61206;SDS011;47070;49.212;8.084;2022-10-31T07:29:46;1006.25;;;945.80;;
61206;SDS011;47070;49.212;8.084;2022-10-31T07:33:46;1005.33;;;944.97;;
61206;SDS011;47070;49.212;8.084;2022-10-31T07:37:47;1018.20;;;956.85;;
61206;SDS011;47070;49.212;8.084;2022-10-31T07:41:48;1024.25;;;962.97;;
61206;SDS011;47070;49.212;8.084;2022-10-31T07:45:50;1028.60;;;967.30;;
61206;SDS011;47070;49.212;8.084;2022-10-31T07:49:52;1024.47;;;963.33;;
61206;SDS011;47070;49.212;8.084;2022-10-31T07:53:52;1031.43;;;970.25;;
61206;SDS011;47070;49.212;8.084;2022-10-31T07:57:56;1038.37;;;976.77;;
61206;SDS011;47070;49.212;8.084;2022-10-31T08:01:58;1039.88;;;978.00;;
61206;SDS011;47070;49.212;8.084;2022-10-31T08:05:58;1038.27;;;975.97;;
61206;SDS011;47070;49.212;8.084;2022-10-31T08:09:59;1044.53;;;982.43;;
61206;SDS011;47070;49.212;8.084;2022-10-31T08:13:59;1050.30;;;988.10;;
61206;SDS011;47070;49.212;8.084;2022-10-31T08:18:00;1049.67;;;987.57;;
61206;SDS011;47070;49.212;8.084;2022-10-31T08:22:01;1044.30;;;982.30;;
61206;SDS011;47070;49.212;8.084;2022-10-31T08:26:02;1062.30;;;999.60;;
61206;SDS011;47070;49.212;8.084;2022-10-31T08:30:03;1073.00;;;999.90;;
61206;SDS011;47070;49.212;8.084;2022-10-31T08:34:03;1070.93;;;999.90;;
61206;SDS011;47070;49.212;8.084;2022-10-31T08:38:04;1066.80;;;999.90;;
61206;SDS011;47070;49.212;8.084;2022-10-31T08:42:04;1068.15;;;999.90;;
61206;SDS011;47070;49.212;8.084;2022-10-31T08:46:05;1081.43;;;999.90;;
61206;SDS011;47070;49.212;8.084;2022-10-31T08:50:06;1089.90;;;999.90;;
61206;SDS011;47070;49.212;8.084;2022-10-31T08:54:07;1090.53;;;999.90;;
61206;SDS011;47070;49.212;8.084;2022-10-31T08:58:09;1097.33;;;999.90;;
61206;SDS011;47070;49.212;8.084;2022-10-31T09:02:12;1094.00;;;999.90;;
61206;SDS011;47070;49.212;8.084;2022-10-31T09:06:12;1098.15;;;999.90;;
61206;SDS011;47070;49.212;8.084;2022-10-31T09:10:15;1099.07;;;999.90;;
61206;SDS011;47070;49.212;8.084;2022-10-31T09:14:16;1107.30;;;999.90;;
61206;SDS011;47070;49.212;8.084;2022-10-31T09:18:18;1105.75;;;999.90;;
61206;SDS011;47070;49.212;8.084;2022-10-31T09:22:20;1101.13;;;999.90;;
61206;SDS011;47070;49.212;8.084;2022-10-31T09:26:20;1107.45;;;999.90;;
61206;SDS011;47070;49.212;8.084;2022-10-31T09:30:21;1110.70;;;999.90;;
61206;SDS011;47070;49.212;8.084;2022-10-31T09:34:22;1118.25;;;999.90;;
61206;SDS011;47070;49.212;8.084;2022-10-31T09:38:22;1112.57;;;999.90;;
61206;SDS011;47070;49.212;8.084;2022-10-31T09:42:30;1110.65;;;999.90;;
61206;SDS011;47070;49.212;8.084;2022-10-31T09:51:04;1110.57;;;999.90;;
61206;SDS011;47070;49.212;8.084;2022-10-31T09:55:19;1113.75;;;999.90;;
61206;SDS011;47070;49.212;8.084;2022-10-31T09:59:28;1119.87;;;999.90;;
61206;SDS011;47070;49.212;8.084;2022-10-31T10:03:34;1112.90;;;999.90;;
61206;SDS011;47070;49.212;8.084;2022-10-31T10:20:47;1109.38;;;999.90;;
61206;SDS011;47070;49.212;8.084;2022-10-31T10:34:01;1141.43;;;999.90;;
61206;SDS011;47070;49.212;8.084;2022-10-31T10:42:15;1133.82;;;999.90;;
61206;SDS011;47070;49.212;8.084;2022-10-31T10:51:01;1134.57;;;999.90;;
61206;SDS011;47070;49.212;8.084;2022-10-31T10:59:46;1138.90;;;999.90;;
61206;SDS011;47070;49.212;8.084;2022-10-31T11:03:47;1139.37;;;999.90;;
61206;SDS011;47070;49.212;8.084;2022-10-31T11:07:47;1134.10;;;999.90;;
61206;SDS011;47070;49.212;8.084;2022-10-31T11:11:48;1135.83;;;999.90;;
61206;SDS011;47070;49.212;8.084;2022-10-31T11:15:51;1138.78;;;999.90;;
61206;SDS011;47070;49.212;8.084;2022-10-31T11:20:01;1146.13;;;999.90;;
61206;SDS011;47070;49.212;8.084;2022-10-31T11:28:16;1137.38;;;999.90;;
61206;SDS011;47070;49.212;8.084;2022-10-31T11:32:21;1140.33;;;999.90;;
61206;SDS011;47070;49.212;8.084;2022-10-31T11:36:25;1137.10;;;999.90;;
61206;SDS011;47070;49.212;8.084;2022-10-31T11:40:28;1134.47;;;999.90;;
61206;SDS011;47070;49.212;8.084;2022-10-31T11:44:29;1118.47;;;999.90;;
61206;SDS011;47070;49.212;8.084;2022-10-31T11:48:32;1130.88;;;999.90;;
61206;SDS011;47070;49.212;8.084;2022-10-31T11:52:36;1135.93;;;999.90;;
61206;SDS011;47070;49.212;8.084;2022-10-31T11:56:39;1140.93;;;999.90;;
61206;SDS011;47070;49.212;8.084;2022-10-31T12:00:47;1139.10;;;999.90;;
61206;SDS011;47070;49.212;8.084;2022-10-31T12:04:58;1143.47;;;999.90;;
61206;SDS011;47070;49.212;8.084;2022-10-31T12:09:16;1150.75;;;999.90;;
61206;SDS011;47070;49.212;8.084;2022-10-31T12:18:17;1146.03;;;999.90;;
61206;SDS011;47070;49.212;8.084;2022-10-31T12:26:48;1148.10;;;999.90;;
61206;SDS011;47070;49.212;8.084;2022-10-31T12:48:50;1144.97;;;999.90;;
61206;SDS011;47070;49.212;8.084;2022-10-31T12:57:47;1144.10;;;999.90;;
61206;SDS011;47070;49.212;8.084;2022-10-31T13:01:56;1154.53;;;999.90;;
61206;SDS011;47070;49.212;8.084;2022-10-31T13:06:13;1195.18;;;999.90;;
61206;SDS011;47070;49.212;8.084;2022-10-31T13:10:22;1237.43;;;999.90;;
61206;SDS011;47070;49.212;8.084;2022-10-31T13:14:36;1255.50;;;999.90;;
61206;SDS011;47070;49.212;8.084;2022-10-31T13:22:53;1286.60;;;999.90;;
61206;SDS011;47070;49.212;8.084;2022-10-31T13:26:57;1292.53;;;999.90;;
61206;SDS011;47070;49.212;8.084;2022-10-31T13:30:59;1298.30;;;999.90;;
61206;SDS011;47070;49.212;8.084;2022-10-31T13:34:59;1300.70;;;999.90;;
61206;SDS011;47070;49.212;8.084;2022-10-31T13:39:11;1305.38;;;999.90;;
61206;SDS011;47070;49.212;8.084;2022-10-31T13:43:32;1300.05;;;999.90;;
61206;SDS011;47070;49.212;8.084;2022-10-31T13:47:54;1277.38;;;999.90;;
61206;SDS011;47070;49.212;8.084;2022-10-31T13:52:24;1273.35;;;999.90;;
61206;SDS011;47070;49.212;8.084;2022-10-31T13:56:26;1261.43;;;999.90;;
61206;SDS011;47070;49.212;8.084;2022-10-31T14:00:32;1237.63;;;999.90;;
61206;SDS011;47070;49.212;8.084;2022-10-31T14:09:02;1218.27;;;999.90;;
61206;SDS011;47070;49.212;8.084;2022-10-31T14:13:07;1209.33;;;999.90;;
61206;SDS011;47070;49.212;8.084;2022-10-31T14:17:19;1207.13;;;999.90;;
61206;SDS011;47070;49.212;8.084;2022-10-31T14:21:26;1201.38;;;999.90;;
61206;SDS011;47070;49.212;8.084;2022-10-31T14:25:30;1195.63;;;999.90;;
61206;SDS011;47070;49.212;8.084;2022-10-31T14:29:34;1187.60;;;999.90;;
61206;SDS011;47070;49.212;8.084;2022-10-31T14:33:34;1174.93;;;999.90;;
61206;SDS011;47070;49.212;8.084;2022-10-31T14:46:36;1168.37;;;999.90;;
61206;SDS011;47070;49.212;8.084;2022-10-31T14:50:48;1166.30;;;999.90;;
61206;SDS011;47070;49.212;8.084;2022-10-31T14:54:53;1166.18;;;999.90;;
61206;SDS011;47070;49.212;8.084;2022-10-31T14:58:57;1161.93;;;999.90;;
61206;SDS011;47070;49.212;8.084;2022-10-31T15:07:16;1151.15;;;999.90;;
61206;SDS011;47070;49.212;8.084;2022-10-31T15:11:23;1153.65;;;999.90;;
61206;SDS011;47070;49.212;8.084;2022-10-31T15:15:25;1147.28;;;999.90;;
61206;SDS011;47070;49.212;8.084;2022-10-31T15:19:27;1148.97;;;999.90;;
61206;SDS011;47070;49.212;8.084;2022-10-31T15:23:30;1150.43;;;999.90;;
61206;SDS011;47070;49.212;8.084;2022-10-31T15:27:31;1161.18;;;999.90;;
61206;SDS011;47070;49.212;8.084;2022-10-31T15:31:33;1153.60;;;999.90;;
61206;SDS011;47070;49.212;8.084;2022-10-31T15:35:33;1145.23;;;999.90;;
61206;SDS011;47070;49.212;8.084;2022-10-31T15:39:34;1146.60;;;999.90;;
61206;SDS011;47070;49.212;8.084;2022-10-31T15:43:35;1140.47;;;999.90;;
61206;SDS011;47070;49.212;8.084;2022-10-31T15:47:38;1140.53;;;999.90;;
61206;SDS011;47070;49.212;8.084;2022-10-31T15:51:45;1140.00;;;999.90;;
61206;SDS011;47070;49.212;8.084;2022-10-31T15:55:50;1134.77;;;999.90;;
61206;SDS011;47070;49.212;8.084;2022-10-31T15:59:54;1125.75;;;999.90;;
61206;SDS011;47070;49.212;8.084;2022-10-31T16:07:58;1123.72;;;999.90;;
61206;SDS011;47070;49.212;8.084;2022-10-31T16:11:59;1124.63;;;999.90;;
61206;SDS011;47070;49.212;8.084;2022-10-31T16:16:00;1123.23;;;999.90;;
61206;SDS011;47070;49.212;8.084;2022-10-31T16:20:16;1126.50;;;999.90;;
61206;SDS011;47070;49.212;8.084;2022-10-31T16:28:35;1111.50;;;999.90;;
61206;SDS011;47070;49.212;8.084;2022-10-31T16:32:50;1111.35;;;999.90;;
61206;SDS011;47070;49.212;8.084;2022-10-31T16:36:54;1101.07;;;999.90;;
61206;SDS011;47070;49.212;8.084;2022-10-31T16:40:55;1098.97;;;999.90;;
61206;SDS011;47070;49.212;8.084;2022-10-31T16:44:55;1101.07;;;999.90;;
61206;SDS011;47070;49.212;8.084;2022-10-31T16:48:56;1107.40;;;999.90;;
61206;SDS011;47070;49.212;8.084;2022-10-31T16:52:57;1104.90;;;999.90;;
61206;SDS011;47070;49.212;8.084;2022-10-31T16:56:58;1102.90;;;999.90;;
61206;SDS011;47070;49.212;8.084;2022-10-31T17:01:00;1090.40;;;999.90;;
61206;SDS011;47070;49.212;8.084;2022-10-31T17:05:01;1090.83;;;999.90;;
61206;SDS011;47070;49.212;8.084;2022-10-31T17:09:02;1083.97;;;999.90;;
61206;SDS011;47070;49.212;8.084;2022-10-31T17:13:03;1084.47;;;999.90;;
61206;SDS011;47070;49.212;8.084;2022-10-31T17:17:06;1085.30;;;999.90;;
61206;SDS011;47070;49.212;8.084;2022-10-31T17:21:09;1076.90;;;999.90;;
61206;SDS011;47070;49.212;8.084;2022-10-31T17:25:17;1077.53;;;999.90;;
61206;SDS011;47070;49.212;8.084;2022-10-31T17:29:19;1068.68;;;999.90;;
61206;SDS011;47070;49.212;8.084;2022-10-31T17:33:19;1077.37;;;999.90;;
61206;SDS011;47070;49.212;8.084;2022-10-31T17:37:20;1077.83;;;999.90;;
61206;SDS011;47070;49.212;8.084;2022-10-31T17:41:21;1075.07;;;999.90;;
61206;SDS011;47070;49.212;8.084;2022-10-31T17:45:22;1064.40;;;999.90;;
61206;SDS011;47070;49.212;8.084;2022-10-31T17:49:24;1065.50;;;999.90;;
61206;SDS011;47070;49.212;8.084;2022-10-31T17:53:24;1060.40;;;998.20;;
61206;SDS011;47070;49.212;8.084;2022-10-31T17:57:31;1074.47;;;999.90;;
61206;SDS011;47070;49.212;8.084;2022-10-31T18:01:33;1067.53;;;999.90;;
61206;SDS011;47070;49.212;8.084;2022-10-31T18:05:34;1067.80;;;999.90;;
61206;SDS011;47070;49.212;8.084;2022-10-31T18:09:35;1075.72;;;999.90;;
61206;SDS011;47070;49.212;8.084;2022-10-31T18:13:36;1065.27;;;999.90;;
61206;SDS011;47070;49.212;8.084;2022-10-31T18:17:37;1077.60;;;999.90;;
61206;SDS011;47070;49.212;8.084;2022-10-31T18:21:37;1065.77;;;999.90;;
61206;SDS011;47070;49.212;8.084;2022-10-31T18:25:38;1067.88;;;999.90;;
61206;SDS011;47070;49.212;8.084;2022-10-31T18:29:39;1080.65;;;999.90;;
61206;SDS011;47070;49.212;8.084;2022-10-31T18:33:40;1076.90;;;999.90;;
61206;SDS011;47070;49.212;8.084;2022-10-31T18:37:41;1079.15;;;999.90;;
61206;SDS011;47070;49.212;8.084;2022-10-31T18:41:42;1080.80;;;999.90;;
61206;SDS011;47070;49.212;8.084;2022-10-31T18:45:42;1073.20;;;999.90;;
61206;SDS011;47070;49.212;8.084;2022-10-31T18:49:43;1086.60;;;999.90;;
61206;SDS011;47070;49.212;8.084;2022-10-31T18:53:51;1092.63;;;999.90;;
61206;SDS011;47070;49.212;8.084;2022-10-31T18:57:52;1083.28;;;999.90;;
61206;SDS011;47070;49.212;8.084;2022-10-31T19:01:53;1084.77;;;999.90;;
61206;SDS011;47070;49.212;8.084;2022-10-31T19:05:53;1096.85;;;999.90;;
61206;SDS011;47070;49.212;8.084;2022-10-31T19:09:55;1099.10;;;999.90;;
61206;SDS011;47070;49.212;8.084;2022-10-31T19:13:55;1106.87;;;999.90;;
61206;SDS011;47070;49.212;8.084;2022-10-31T19:17:56;1109.23;;;999.90;;
61206;SDS011;47070;49.212;8.084;2022-10-31T19:21:57;1098.73;;;999.90;;
61206;SDS011;47070;49.212;8.084;2022-10-31T19:25:58;1100.83;;;999.90;;
61206;SDS011;47070;49.212;8.084;2022-10-31T19:29:59;1104.95;;;999.90;;
61206;SDS011;47070;49.212;8.084;2022-10-31T19:34:00;1117.20;;;999.90;;
61206;SDS011;47070;49.212;8.084;2022-10-31T19:38:00;1103.80;;;999.90;;
61206;SDS011;47070;49.212;8.084;2022-10-31T19:42:01;1101.20;;;999.90;;
61206;SDS011;47070;49.212;8.084;2022-10-31T19:46:02;1104.70;;;999.90;;
61206;SDS011;47070;49.212;8.084;2022-10-31T19:50:03;1087.60;;;999.90;;
61206;SDS011;47070;49.212;8.084;2022-10-31T19:54:04;1079.37;;;999.90;;
61206;SDS011;47070;49.212;8.084;2022-10-31T19:58:05;1076.67;;;999.90;;
61206;SDS011;47070;49.212;8.084;2022-10-31T20:02:05;1074.10;;;999.90;;
61206;SDS011;47070;49.212;8.084;2022-10-31T20:06:06;1070.17;;;999.90;;
61206;SDS011;47070;49.212;8.084;2022-10-31T20:10:10;1064.55;;;999.90;;
61206;SDS011;47070;49.212;8.084;2022-10-31T20:14:12;1062.27;;;999.37;;
61206;SDS011;47070;49.212;8.084;2022-10-31T20:18:14;1069.43;;;999.90;;
61206;SDS011;47070;49.212;8.084;2022-10-31T20:22:15;1064.40;;;999.90;;
61206;SDS011;47070;49.212;8.084;2022-10-31T20:26:16;1065.57;;;999.90;;
61206;SDS011;47070;49.212;8.084;2022-10-31T20:30:18;1064.47;;;999.90;;
61206;SDS011;47070;49.212;8.084;2022-10-31T20:34:18;1064.53;;;999.90;;
61206;SDS011;47070;49.212;8.084;2022-10-31T20:38:19;1068.33;;;999.90;;
61206;SDS011;47070;49.212;8.084;2022-10-31T20:42:19;1078.93;;;999.90;;
61206;SDS011;47070;49.212;8.084;2022-10-31T20:46:23;1069.87;;;999.90;;
61206;SDS011;47070;49.212;8.084;2022-10-31T20:50:25;1059.55;;;997.13;;
61206;SDS011;47070;49.212;8.084;2022-10-31T20:54:26;1064.25;;;999.83;;
61206;SDS011;47070;49.212;8.084;2022-10-31T20:58:26;1050.07;;;987.83;;
61206;SDS011;47070;49.212;8.084;2022-10-31T21:02:27;1047.85;;;985.55;;
61206;SDS011;47070;49.212;8.084;2022-10-31T21:06:27;1042.00;;;979.90;;
61206;SDS011;47070;49.212;8.084;2022-10-31T21:10:28;1044.35;;;982.10;;
61206;SDS011;47070;49.212;8.084;2022-10-31T21:14:29;1033.43;;;971.60;;
61206;SDS011;47070;49.212;8.084;2022-10-31T21:18:29;1036.63;;;974.75;;
61206;SDS011;47070;49.212;8.084;2022-10-31T21:22:30;1032.20;;;970.70;;
61206;SDS011;47070;49.212;8.084;2022-10-31T21:26:32;1029.72;;;968.25;;
61206;SDS011;47070;49.212;8.084;2022-10-31T21:30:38;1032.80;;;971.00;;
61206;SDS011;47070;49.212;8.084;2022-10-31T21:34:40;1032.30;;;970.30;;
61206;SDS011;47070;49.212;8.084;2022-10-31T21:38:41;1030.77;;;968.57;;
61206;SDS011;47070;49.212;8.084;2022-10-31T21:42:42;1037.15;;;974.90;;
61206;SDS011;47070;49.212;8.084;2022-10-31T21:46:43;1024.93;;;963.53;;
61206;SDS011;47070;49.212;8.084;2022-10-31T21:50:46;1026.60;;;965.10;;
61206;SDS011;47070;49.212;8.084;2022-10-31T21:54:46;1027.33;;;965.90;;
61206;SDS011;47070;49.212;8.084;2022-10-31T21:58:47;1025.33;;;964.03;;
61206;SDS011;47070;49.212;8.084;2022-10-31T22:02:48;1025.07;;;963.72;;
61206;SDS011;47070;49.212;8.084;2022-10-31T22:06:48;1026.13;;;964.93;;
61206;SDS011;47070;49.212;8.084;2022-10-31T22:10:49;1032.03;;;970.43;;
61206;SDS011;47070;49.212;8.084;2022-10-31T22:14:49;1028.93;;;967.60;;
61206;SDS011;47070;49.212;8.084;2022-10-31T22:18:51;1041.23;;;979.37;;
61206;SDS011;47070;49.212;8.084;2022-10-31T22:22:53;1041.47;;;979.78;;
61206;SDS011;47070;49.212;8.084;2022-10-31T22:26:53;1041.30;;;979.60;;
61206;SDS011;47070;49.212;8.084;2022-10-31T22:30:54;1048.33;;;986.37;;
61206;SDS011;47070;49.212;8.084;2022-10-31T22:34:54;1054.23;;;991.70;;
61206;SDS011;47070;49.212;8.084;2022-10-31T22:38:55;1049.27;;;987.43;;
61206;SDS011;47070;49.212;8.084;2022-10-31T22:42:57;1045.85;;;984.22;;
61206;SDS011;47070;49.212;8.084;2022-10-31T22:46:57;1063.18;;;999.65;;
61206;SDS011;47070;49.212;8.084;2022-10-31T22:51:08;1065.00;;;999.90;;
61206;SDS011;47070;49.212;8.084;2022-10-31T22:55:19;1070.07;;;999.90;;
61206;SDS011;47070;49.212;8.084;2022-10-31T22:59:20;1073.90;;;999.90;;
61206;SDS011;47070;49.212;8.084;2022-10-31T23:03:20;1071.70;;;999.90;;
61206;SDS011;47070;49.212;8.084;2022-10-31T23:07:21;1068.60;;;999.90;;
61206;SDS011;47070;49.212;8.084;2022-10-31T23:11:23;1069.63;;;999.90;;
61206;SDS011;47070;49.212;8.084;2022-10-31T23:15:25;1066.53;;;999.90;;
61206;SDS011;47070;49.212;8.084;2022-10-31T23:19:27;1066.40;;;999.90;;
61206;SDS011;47070;49.212;8.084;2022-10-31T23:23:31;1069.75;;;999.90;;
61206;SDS011;47070;49.212;8.084;2022-10-31T23:27:33;1061.80;;;998.90;;
61206;SDS011;47070;49.212;8.084;2022-10-31T23:31:34;1055.15;;;992.72;;
61206;SDS011;47070;49.212;8.084;2022-10-31T23:35:34;1057.27;;;994.73;;
61206;SDS011;47070;49.212;8.084;2022-10-31T23:39:35;1052.70;;;990.47;;
61206;SDS011;47070;49.212;8.084;2022-10-31T23:43:35;1051.47;;;989.50;;
61206;SDS011;47070;49.212;8.084;2022-10-31T23:47:36;1055.90;;;993.67;;
61206;SDS011;47070;49.212;8.084;2022-10-31T23:51:37;1050.50;;;988.53;;
61206;SDS011;47070;49.212;8.084;2022-10-31T23:55:38;1058.30;;;996.00;;
61206;SDS011;47070;49.212;8.084;2022-10-31T23:59:38;1054.53;;;992.33;;
